sensor_id;sensor_type;location;lat;lon;timestamp;P1;durP1;ratioP1;P2;durP2;ratioP2
34278;SDS011;20538;51.528;9.942;2023-02-05T00:02:00;26.17;;;12.95;;
34278;SDS011;20538;51.528;9.942;2023-02-05T00:04:26;20.42;;;11.35;;
34278;SDS011;20538;51.528;9.942;2023-02-05T00:06:51;21.30;;;11.82;;
34278;SDS011;20538;51.528;9.942;2023-02-05T00:09:17;18.17;;;10.48;;
34278;SDS011;20538;51.528;9.942;2023-02-05T00:11:43;19.33;;;11.00;;
34278;SDS011;20538;51.528;9.942;2023-02-05T00:14:08;23.55;;;11.55;;
34278;SDS011;20538;51.528;9.942;2023-02-05T00:16:34;19.25;;;9.82;;
34278;SDS011;20538;51.528;9.942;2023-02-05T00:19:00;16.38;;;9.70;;
34278;SDS011;20538;51.528;9.942;2023-02-05T00:21:26;18.00;;;10.25;;
34278;SDS011;20538;51.528;9.942;2023-02-05T00:23:52;20.20;;;10.07;;
34278;SDS011;20538;51.528;9.942;2023-02-05T00:26:18;17.52;;;9.82;;
34278;SDS011;20538;51.528;9.942;2023-02-05T00:28:44;16.75;;;9.90;;
34278;SDS011;20538;51.528;9.942;2023-02-05T00:31:11;21.27;;;10.77;;
34278;SDS011;20538;51.528;9.942;2023-02-05T00:33:37;19.58;;;10.30;;
34278;SDS011;20538;51.528;9.942;2023-02-05T00:36:04;18.60;;;9.27;;
34278;SDS011;20538;51.528;9.942;2023-02-05T00:38:30;20.48;;;9.90;;
34278;SDS011;20538;51.528;9.942;2023-02-05T00:40:55;23.15;;;9.30;;
34278;SDS011;20538;51.528;9.942;2023-02-05T00:43:21;15.45;;;9.43;;
34278;SDS011;20538;51.528;9.942;2023-02-05T00:45:46;18.17;;;9.25;;
34278;SDS011;20538;51.528;9.942;2023-02-05T00:48:12;16.90;;;8.63;;
34278;SDS011;20538;51.528;9.942;2023-02-05T00:50:38;19.27;;;9.18;;
34278;SDS011;20538;51.528;9.942;2023-02-05T00:53:04;17.63;;;8.35;;
34278;SDS011;20538;51.528;9.942;2023-02-05T00:55:30;14.55;;;8.65;;
34278;SDS011;20538;51.528;9.942;2023-02-05T00:57:56;21.23;;;9.05;;
34278;SDS011;20538;51.528;9.942;2023-02-05T01:00:21;17.95;;;9.15;;
34278;SDS011;20538;51.528;9.942;2023-02-05T01:02:47;15.10;;;9.40;;
34278;SDS011;20538;51.528;9.942;2023-02-05T01:05:13;20.25;;;8.50;;
34278;SDS011;20538;51.528;9.942;2023-02-05T01:07:39;21.13;;;10.20;;
34278;SDS011;20538;51.528;9.942;2023-02-05T01:10:05;14.52;;;8.57;;
34278;SDS011;20538;51.528;9.942;2023-02-05T01:12:31;15.02;;;8.32;;
34278;SDS011;20538;51.528;9.942;2023-02-05T01:14:59;16.70;;;8.73;;
34278;SDS011;20538;51.528;9.942;2023-02-05T01:17:26;15.57;;;9.10;;
34278;SDS011;20538;51.528;9.942;2023-02-05T01:19:51;23.42;;;9.07;;
34278;SDS011;20538;51.528;9.942;2023-02-05T01:22:17;14.38;;;9.10;;
34278;SDS011;20538;51.528;9.942;2023-02-05T01:24:43;17.85;;;10.32;;
34278;SDS011;20538;51.528;9.942;2023-02-05T01:27:08;19.15;;;8.57;;
34278;SDS011;20538;51.528;9.942;2023-02-05T01:29:34;16.35;;;9.02;;
34278;SDS011;20538;51.528;9.942;2023-02-05T01:31:59;18.23;;;8.98;;
34278;SDS011;20538;51.528;9.942;2023-02-05T01:34:25;18.80;;;8.52;;
34278;SDS011;20538;51.528;9.942;2023-02-05T01:36:50;19.40;;;8.18;;
34278;SDS011;20538;51.528;9.942;2023-02-05T01:39:16;16.60;;;8.20;;
34278;SDS011;20538;51.528;9.942;2023-02-05T01:41:42;17.67;;;8.60;;
34278;SDS011;20538;51.528;9.942;2023-02-05T01:44:10;13.88;;;7.40;;
34278;SDS011;20538;51.528;9.942;2023-02-05T01:46:48;13.77;;;7.88;;
34278;SDS011;20538;51.528;9.942;2023-02-05T01:52:06;15.45;;;7.32;;
34278;SDS011;20538;51.528;9.942;2023-02-05T01:54:38;15.35;;;7.45;;
34278;SDS011;20538;51.528;9.942;2023-02-05T01:57:09;14.60;;;7.25;;
34278;SDS011;20538;51.528;9.942;2023-02-05T01:59:40;13.00;;;7.10;;
34278;SDS011;20538;51.528;9.942;2023-02-05T02:02:08;13.63;;;6.60;;
34278;SDS011;20538;51.528;9.942;2023-02-05T02:04:41;13.45;;;6.22;;
34278;SDS011;20538;51.528;9.942;2023-02-05T02:07:15;13.93;;;6.83;;
34278;SDS011;20538;51.528;9.942;2023-02-05T02:09:45;14.77;;;6.97;;
34278;SDS011;20538;51.528;9.942;2023-02-05T02:12:13;11.27;;;6.75;;
34278;SDS011;20538;51.528;9.942;2023-02-05T02:14:42;11.35;;;6.97;;
34278;SDS011;20538;51.528;9.942;2023-02-05T02:17:12;14.45;;;6.07;;
34278;SDS011;20538;51.528;9.942;2023-02-05T02:19:44;7.65;;;5.00;;
34278;SDS011;20538;51.528;9.942;2023-02-05T02:22:32;11.23;;;6.20;;
34278;SDS011;20538;51.528;9.942;2023-02-05T02:30:46;9.25;;;5.50;;
34278;SDS011;20538;51.528;9.942;2023-02-05T02:33:19;10.65;;;5.28;;
34278;SDS011;20538;51.528;9.942;2023-02-05T02:35:57;10.40;;;6.00;;
34278;SDS011;20538;51.528;9.942;2023-02-05T02:38:44;9.88;;;5.13;;
34278;SDS011;20538;51.528;9.942;2023-02-05T02:41:33;10.68;;;4.82;;
34278;SDS011;20538;51.528;9.942;2023-02-05T02:44:06;11.38;;;5.50;;
34278;SDS011;20538;51.528;9.942;2023-02-05T02:46:41;8.18;;;5.03;;
34278;SDS011;20538;51.528;9.942;2023-02-05T02:49:14;10.68;;;6.03;;
34278;SDS011;20538;51.528;9.942;2023-02-05T02:51:50;13.77;;;6.35;;
34278;SDS011;20538;51.528;9.942;2023-02-05T02:54:17;13.02;;;6.53;;
34278;SDS011;20538;51.528;9.942;2023-02-05T02:56:45;14.05;;;6.45;;
34278;SDS011;20538;51.528;9.942;2023-02-05T02:59:17;10.27;;;4.95;;
34278;SDS011;20538;51.528;9.942;2023-02-05T03:01:49;12.45;;;5.13;;
34278;SDS011;20538;51.528;9.942;2023-02-05T03:04:29;8.43;;;4.63;;
34278;SDS011;20538;51.528;9.942;2023-02-05T03:07:29;7.97;;;5.15;;
34278;SDS011;20538;51.528;9.942;2023-02-05T03:10:05;10.93;;;5.53;;
34278;SDS011;20538;51.528;9.942;2023-02-05T03:12:35;10.73;;;4.72;;
34278;SDS011;20538;51.528;9.942;2023-02-05T03:15:00;9.15;;;4.82;;
34278;SDS011;20538;51.528;9.942;2023-02-05T03:17:26;5.88;;;3.55;;
34278;SDS011;20538;51.528;9.942;2023-02-05T03:20:05;6.10;;;4.25;;
34278;SDS011;20538;51.528;9.942;2023-02-05T03:22:33;8.20;;;4.32;;
34278;SDS011;20538;51.528;9.942;2023-02-05T03:25:00;6.93;;;4.03;;
34278;SDS011;20538;51.528;9.942;2023-02-05T03:27:26;8.90;;;4.40;;
34278;SDS011;20538;51.528;9.942;2023-02-05T03:29:52;5.85;;;3.90;;
34278;SDS011;20538;51.528;9.942;2023-02-05T03:40:56;5.70;;;3.85;;
34278;SDS011;20538;51.528;9.942;2023-02-05T03:51:51;5.88;;;3.53;;
34278;SDS011;20538;51.528;9.942;2023-02-05T03:57:22;6.88;;;3.80;;
34278;SDS011;20538;51.528;9.942;2023-02-05T03:59:54;6.03;;;3.83;;
34278;SDS011;20538;51.528;9.942;2023-02-05T04:02:20;7.05;;;3.50;;
34278;SDS011;20538;51.528;9.942;2023-02-05T04:04:46;8.45;;;3.78;;
34278;SDS011;20538;51.528;9.942;2023-02-05T04:07:12;8.02;;;4.20;;
34278;SDS011;20538;51.528;9.942;2023-02-05T04:09:38;9.32;;;4.13;;
34278;SDS011;20538;51.528;9.942;2023-02-05T04:12:04;10.02;;;4.53;;
34278;SDS011;20538;51.528;9.942;2023-02-05T04:14:29;8.15;;;4.25;;
34278;SDS011;20538;51.528;9.942;2023-02-05T04:16:55;9.95;;;4.75;;
34278;SDS011;20538;51.528;9.942;2023-02-05T04:19:21;12.30;;;4.45;;
34278;SDS011;20538;51.528;9.942;2023-02-05T04:21:46;6.30;;;3.92;;
34278;SDS011;20538;51.528;9.942;2023-02-05T04:24:12;8.02;;;3.50;;
34278;SDS011;20538;51.528;9.942;2023-02-05T04:26:38;8.77;;;4.32;;
34278;SDS011;20538;51.528;9.942;2023-02-05T04:29:03;7.30;;;3.75;;
34278;SDS011;20538;51.528;9.942;2023-02-05T04:31:29;6.57;;;3.88;;
34278;SDS011;20538;51.528;9.942;2023-02-05T04:33:55;14.48;;;3.80;;
34278;SDS011;20538;51.528;9.942;2023-02-05T04:36:20;7.85;;;4.55;;
34278;SDS011;20538;51.528;9.942;2023-02-05T04:38:46;9.20;;;4.60;;
34278;SDS011;20538;51.528;9.942;2023-02-05T04:41:11;8.68;;;4.55;;
34278;SDS011;20538;51.528;9.942;2023-02-05T04:43:37;9.30;;;4.35;;
34278;SDS011;20538;51.528;9.942;2023-02-05T04:46:06;8.00;;;4.13;;
34278;SDS011;20538;51.528;9.942;2023-02-05T04:48:33;8.25;;;4.68;;
34278;SDS011;20538;51.528;9.942;2023-02-05T04:50:59;6.45;;;4.10;;
34278;SDS011;20538;51.528;9.942;2023-02-05T04:53:29;6.80;;;4.15;;
34278;SDS011;20538;51.528;9.942;2023-02-05T04:56:02;7.10;;;3.42;;
34278;SDS011;20538;51.528;9.942;2023-02-05T04:58:32;6.38;;;4.38;;
34278;SDS011;20538;51.528;9.942;2023-02-05T05:00:58;10.50;;;4.20;;
34278;SDS011;20538;51.528;9.942;2023-02-05T05:03:24;6.78;;;3.95;;
34278;SDS011;20538;51.528;9.942;2023-02-05T05:05:49;6.13;;;4.07;;
34278;SDS011;20538;51.528;9.942;2023-02-05T05:08:16;8.48;;;4.72;;
34278;SDS011;20538;51.528;9.942;2023-02-05T05:10:42;5.55;;;4.20;;
34278;SDS011;20538;51.528;9.942;2023-02-05T05:13:08;6.85;;;3.35;;
34278;SDS011;20538;51.528;9.942;2023-02-05T05:15:34;5.75;;;3.55;;
34278;SDS011;20538;51.528;9.942;2023-02-05T05:18:00;7.35;;;3.50;;
34278;SDS011;20538;51.528;9.942;2023-02-05T05:20:25;4.13;;;2.83;;
34278;SDS011;20538;51.528;9.942;2023-02-05T05:22:51;5.05;;;3.35;;
34278;SDS011;20538;51.528;9.942;2023-02-05T05:25:16;6.22;;;2.90;;
34278;SDS011;20538;51.528;9.942;2023-02-05T05:27:42;6.60;;;2.67;;
34278;SDS011;20538;51.528;9.942;2023-02-05T05:30:08;5.45;;;2.50;;
34278;SDS011;20538;51.528;9.942;2023-02-05T05:32:34;6.18;;;2.80;;
34278;SDS011;20538;51.528;9.942;2023-02-05T05:35:00;4.05;;;2.53;;
34278;SDS011;20538;51.528;9.942;2023-02-05T05:37:25;4.55;;;2.80;;
34278;SDS011;20538;51.528;9.942;2023-02-05T05:39:51;6.03;;;2.83;;
34278;SDS011;20538;51.528;9.942;2023-02-05T05:42:36;7.65;;;3.00;;
34278;SDS011;20538;51.528;9.942;2023-02-05T05:45:21;5.75;;;1.98;;
34278;SDS011;20538;51.528;9.942;2023-02-05T05:47:46;6.30;;;2.90;;
34278;SDS011;20538;51.528;9.942;2023-02-05T05:50:12;3.90;;;2.20;;
34278;SDS011;20538;51.528;9.942;2023-02-05T05:52:38;6.88;;;3.60;;
34278;SDS011;20538;51.528;9.942;2023-02-05T05:55:03;8.98;;;2.30;;
34278;SDS011;20538;51.528;9.942;2023-02-05T05:57:29;10.05;;;2.60;;
34278;SDS011;20538;51.528;9.942;2023-02-05T05:59:55;4.25;;;2.40;;
34278;SDS011;20538;51.528;9.942;2023-02-05T06:02:21;3.40;;;2.70;;
34278;SDS011;20538;51.528;9.942;2023-02-05T06:04:46;5.00;;;2.40;;
34278;SDS011;20538;51.528;9.942;2023-02-05T06:07:12;5.47;;;2.65;;
34278;SDS011;20538;51.528;9.942;2023-02-05T06:09:38;6.43;;;3.28;;
34278;SDS011;20538;51.528;9.942;2023-02-05T06:12:03;5.78;;;3.17;;
34278;SDS011;20538;51.528;9.942;2023-02-05T06:14:29;8.40;;;3.88;;
34278;SDS011;20538;51.528;9.942;2023-02-05T06:16:55;5.47;;;3.22;;
34278;SDS011;20538;51.528;9.942;2023-02-05T06:19:21;4.43;;;2.80;;
34278;SDS011;20538;51.528;9.942;2023-02-05T06:21:47;6.00;;;3.30;;
34278;SDS011;20538;51.528;9.942;2023-02-05T06:24:12;6.13;;;2.90;;
34278;SDS011;20538;51.528;9.942;2023-02-05T06:26:38;7.82;;;3.08;;
34278;SDS011;20538;51.528;9.942;2023-02-05T06:29:03;6.20;;;3.05;;
34278;SDS011;20538;51.528;9.942;2023-02-05T06:31:29;4.32;;;2.58;;
34278;SDS011;20538;51.528;9.942;2023-02-05T06:33:55;3.58;;;2.83;;
34278;SDS011;20538;51.528;9.942;2023-02-05T06:36:21;5.57;;;2.80;;
34278;SDS011;20538;51.528;9.942;2023-02-05T06:38:49;6.50;;;2.95;;
34278;SDS011;20538;51.528;9.942;2023-02-05T06:41:14;4.72;;;2.63;;
34278;SDS011;20538;51.528;9.942;2023-02-05T06:43:40;3.63;;;2.53;;
34278;SDS011;20538;51.528;9.942;2023-02-05T06:46:05;4.78;;;2.63;;
34278;SDS011;20538;51.528;9.942;2023-02-05T06:48:31;4.60;;;2.83;;
34278;SDS011;20538;51.528;9.942;2023-02-05T06:50:56;5.07;;;3.17;;
34278;SDS011;20538;51.528;9.942;2023-02-05T06:53:22;5.93;;;2.83;;
34278;SDS011;20538;51.528;9.942;2023-02-05T06:55:48;5.25;;;2.85;;
34278;SDS011;20538;51.528;9.942;2023-02-05T06:58:13;6.75;;;3.30;;
34278;SDS011;20538;51.528;9.942;2023-02-05T07:00:39;5.55;;;3.00;;
34278;SDS011;20538;51.528;9.942;2023-02-05T07:03:04;6.20;;;3.60;;
34278;SDS011;20538;51.528;9.942;2023-02-05T07:05:31;6.55;;;3.25;;
34278;SDS011;20538;51.528;9.942;2023-02-05T07:07:58;4.10;;;3.28;;
34278;SDS011;20538;51.528;9.942;2023-02-05T07:10:23;6.63;;;3.22;;
34278;SDS011;20538;51.528;9.942;2023-02-05T07:12:49;5.43;;;3.65;;
34278;SDS011;20538;51.528;9.942;2023-02-05T07:15:15;5.25;;;3.10;;
34278;SDS011;20538;51.528;9.942;2023-02-05T07:17:40;5.15;;;3.40;;
34278;SDS011;20538;51.528;9.942;2023-02-05T07:20:06;7.63;;;3.63;;
34278;SDS011;20538;51.528;9.942;2023-02-05T07:22:32;9.02;;;3.63;;
34278;SDS011;20538;51.528;9.942;2023-02-05T07:24:58;7.78;;;3.83;;
34278;SDS011;20538;51.528;9.942;2023-02-05T07:27:24;7.68;;;4.30;;
34278;SDS011;20538;51.528;9.942;2023-02-05T07:29:50;7.60;;;4.03;;
34278;SDS011;20538;51.528;9.942;2023-02-05T07:32:16;12.93;;;4.35;;
34278;SDS011;20538;51.528;9.942;2023-02-05T07:34:41;5.40;;;3.25;;
34278;SDS011;20538;51.528;9.942;2023-02-05T07:37:11;7.72;;;3.88;;
34278;SDS011;20538;51.528;9.942;2023-02-05T07:39:39;7.20;;;3.60;;
34278;SDS011;20538;51.528;9.942;2023-02-05T07:42:05;5.00;;;3.55;;
34278;SDS011;20538;51.528;9.942;2023-02-05T07:44:31;8.13;;;3.00;;
34278;SDS011;20538;51.528;9.942;2023-02-05T07:46:56;5.80;;;3.22;;
34278;SDS011;20538;51.528;9.942;2023-02-05T07:49:22;5.78;;;3.22;;
34278;SDS011;20538;51.528;9.942;2023-02-05T07:51:48;4.07;;;2.92;;
34278;SDS011;20538;51.528;9.942;2023-02-05T07:54:13;5.20;;;3.15;;
34278;SDS011;20538;51.528;9.942;2023-02-05T07:56:39;4.60;;;3.15;;
34278;SDS011;20538;51.528;9.942;2023-02-05T07:59:06;7.03;;;3.28;;
34278;SDS011;20538;51.528;9.942;2023-02-05T08:01:32;9.50;;;3.40;;
34278;SDS011;20538;51.528;9.942;2023-02-05T08:03:58;7.10;;;3.85;;
34278;SDS011;20538;51.528;9.942;2023-02-05T08:06:24;4.57;;;3.03;;
34278;SDS011;20538;51.528;9.942;2023-02-05T08:08:50;9.93;;;4.40;;
34278;SDS011;20538;51.528;9.942;2023-02-05T08:11:16;14.70;;;6.70;;
34278;SDS011;20538;51.528;9.942;2023-02-05T08:13:43;9.35;;;4.70;;
34278;SDS011;20538;51.528;9.942;2023-02-05T08:16:09;9.40;;;4.22;;
34278;SDS011;20538;51.528;9.942;2023-02-05T08:18:36;8.50;;;3.83;;
34278;SDS011;20538;51.528;9.942;2023-02-05T08:21:02;6.40;;;3.38;;
34278;SDS011;20538;51.528;9.942;2023-02-05T08:23:28;5.93;;;3.50;;
34278;SDS011;20538;51.528;9.942;2023-02-05T08:25:56;6.97;;;4.07;;
34278;SDS011;20538;51.528;9.942;2023-02-05T08:28:26;8.30;;;3.85;;
34278;SDS011;20538;51.528;9.942;2023-02-05T08:30:52;7.00;;;4.03;;
34278;SDS011;20538;51.528;9.942;2023-02-05T08:33:20;8.77;;;3.83;;
34278;SDS011;20538;51.528;9.942;2023-02-05T08:35:46;4.80;;;3.25;;
34278;SDS011;20538;51.528;9.942;2023-02-05T08:38:11;6.80;;;3.58;;
34278;SDS011;20538;51.528;9.942;2023-02-05T08:40:37;6.82;;;3.92;;
34278;SDS011;20538;51.528;9.942;2023-02-05T08:43:03;5.78;;;3.88;;
34278;SDS011;20538;51.528;9.942;2023-02-05T08:45:29;6.93;;;4.13;;
34278;SDS011;20538;51.528;9.942;2023-02-05T08:47:54;6.38;;;4.18;;
34278;SDS011;20538;51.528;9.942;2023-02-05T08:50:20;6.97;;;4.03;;
34278;SDS011;20538;51.528;9.942;2023-02-05T08:52:46;11.20;;;5.30;;
34278;SDS011;20538;51.528;9.942;2023-02-05T08:55:12;11.57;;;5.40;;
34278;SDS011;20538;51.528;9.942;2023-02-05T08:57:37;7.72;;;3.92;;
34278;SDS011;20538;51.528;9.942;2023-02-05T09:00:04;9.65;;;4.18;;
34278;SDS011;20538;51.528;9.942;2023-02-05T09:02:30;9.15;;;4.78;;
34278;SDS011;20538;51.528;9.942;2023-02-05T09:04:55;8.40;;;5.38;;
34278;SDS011;20538;51.528;9.942;2023-02-05T09:07:21;8.93;;;5.80;;
34278;SDS011;20538;51.528;9.942;2023-02-05T09:09:47;10.65;;;6.00;;
34278;SDS011;20538;51.528;9.942;2023-02-05T09:12:13;9.15;;;5.55;;
34278;SDS011;20538;51.528;9.942;2023-02-05T09:14:38;8.20;;;5.40;;
34278;SDS011;20538;51.528;9.942;2023-02-05T09:17:05;5.65;;;4.45;;
34278;SDS011;20538;51.528;9.942;2023-02-05T09:19:33;8.80;;;4.93;;
34278;SDS011;20538;51.528;9.942;2023-02-05T09:22:00;8.23;;;4.55;;
34278;SDS011;20538;51.528;9.942;2023-02-05T09:24:26;8.25;;;4.10;;
34278;SDS011;20538;51.528;9.942;2023-02-05T09:26:54;8.63;;;4.28;;
34278;SDS011;20538;51.528;9.942;2023-02-05T09:29:20;7.25;;;3.80;;
34278;SDS011;20538;51.528;9.942;2023-02-05T09:31:46;6.85;;;4.20;;
34278;SDS011;20538;51.528;9.942;2023-02-05T09:34:11;6.95;;;4.55;;
34278;SDS011;20538;51.528;9.942;2023-02-05T09:36:37;10.57;;;4.47;;
34278;SDS011;20538;51.528;9.942;2023-02-05T09:39:04;7.90;;;4.20;;
34278;SDS011;20538;51.528;9.942;2023-02-05T09:41:32;6.72;;;4.32;;
34278;SDS011;20538;51.528;9.942;2023-02-05T09:49:27;13.68;;;5.30;;
34278;SDS011;20538;51.528;9.942;2023-02-05T09:52:02;7.85;;;4.65;;
34278;SDS011;20538;51.528;9.942;2023-02-05T09:54:55;11.45;;;5.03;;
34278;SDS011;20538;51.528;9.942;2023-02-05T09:57:31;5.85;;;3.80;;
34278;SDS011;20538;51.528;9.942;2023-02-05T09:59:56;9.65;;;4.43;;
34278;SDS011;20538;51.528;9.942;2023-02-05T10:05:15;10.02;;;4.60;;
34278;SDS011;20538;51.528;9.942;2023-02-05T10:10:46;10.32;;;4.32;;
34278;SDS011;20538;51.528;9.942;2023-02-05T10:24:54;10.80;;;5.10;;
34278;SDS011;20538;51.528;9.942;2023-02-05T10:27:44;11.30;;;4.78;;
34278;SDS011;20538;51.528;9.942;2023-02-05T10:36:23;10.95;;;4.85;;
34278;SDS011;20538;51.528;9.942;2023-02-05T10:38:51;8.07;;;4.65;;
34278;SDS011;20538;51.528;9.942;2023-02-05T10:41:36;8.43;;;5.10;;
34278;SDS011;20538;51.528;9.942;2023-02-05T10:46:50;7.95;;;4.50;;
34278;SDS011;20538;51.528;9.942;2023-02-05T10:52:11;11.32;;;4.70;;
34278;SDS011;20538;51.528;9.942;2023-02-05T10:54:38;8.88;;;5.28;;
34278;SDS011;20538;51.528;9.942;2023-02-05T10:57:09;15.02;;;5.43;;
34278;SDS011;20538;51.528;9.942;2023-02-05T10:59:40;8.27;;;4.82;;
34278;SDS011;20538;51.528;9.942;2023-02-05T11:02:18;10.00;;;5.00;;
34278;SDS011;20538;51.528;9.942;2023-02-05T11:04:49;10.90;;;5.28;;
34278;SDS011;20538;51.528;9.942;2023-02-05T11:07:26;10.95;;;5.63;;
34278;SDS011;20538;51.528;9.942;2023-02-05T11:10:11;9.95;;;5.40;;
34278;SDS011;20538;51.528;9.942;2023-02-05T11:12:47;9.85;;;6.05;;
34278;SDS011;20538;51.528;9.942;2023-02-05T11:15:29;9.98;;;5.40;;
34278;SDS011;20538;51.528;9.942;2023-02-05T11:18:00;9.02;;;5.38;;
34278;SDS011;20538;51.528;9.942;2023-02-05T11:20:30;9.15;;;5.60;;
34278;SDS011;20538;51.528;9.942;2023-02-05T11:28:29;10.70;;;6.18;;
34278;SDS011;20538;51.528;9.942;2023-02-05T11:30:56;8.57;;;5.95;;
34278;SDS011;20538;51.528;9.942;2023-02-05T11:33:41;12.80;;;6.35;;
34278;SDS011;20538;51.528;9.942;2023-02-05T11:36:08;10.13;;;5.97;;
34278;SDS011;20538;51.528;9.942;2023-02-05T11:41:35;12.45;;;6.00;;
34278;SDS011;20538;51.528;9.942;2023-02-05T11:44:19;10.23;;;5.53;;
34278;SDS011;20538;51.528;9.942;2023-02-05T11:46:51;10.00;;;5.82;;
34278;SDS011;20538;51.528;9.942;2023-02-05T11:49:21;11.43;;;6.00;;
34278;SDS011;20538;51.528;9.942;2023-02-05T11:51:51;11.68;;;5.85;;
34278;SDS011;20538;51.528;9.942;2023-02-05T11:54:21;11.75;;;6.05;;
34278;SDS011;20538;51.528;9.942;2023-02-05T11:57:07;8.40;;;5.38;;
34278;SDS011;20538;51.528;9.942;2023-02-05T11:59:54;9.73;;;6.25;;
34278;SDS011;20538;51.528;9.942;2023-02-05T12:04:54;11.05;;;5.82;;
34278;SDS011;20538;51.528;9.942;2023-02-05T12:08:21;11.77;;;5.47;;
34278;SDS011;20538;51.528;9.942;2023-02-05T12:19:21;11.13;;;6.95;;
34278;SDS011;20538;51.528;9.942;2023-02-05T12:22:15;8.55;;;6.30;;
34278;SDS011;20538;51.528;9.942;2023-02-05T12:30:29;10.90;;;6.03;;
34278;SDS011;20538;51.528;9.942;2023-02-05T12:49:51;14.93;;;6.25;;
34278;SDS011;20538;51.528;9.942;2023-02-05T12:55:21;11.13;;;6.65;;
34278;SDS011;20538;51.528;9.942;2023-02-05T12:58:06;9.73;;;6.32;;
34278;SDS011;20538;51.528;9.942;2023-02-05T13:00:43;12.43;;;6.70;;
34278;SDS011;20538;51.528;9.942;2023-02-05T13:06:07;11.70;;;7.32;;
34278;SDS011;20538;51.528;9.942;2023-02-05T13:08:41;11.02;;;6.97;;
34278;SDS011;20538;51.528;9.942;2023-02-05T13:16:48;18.60;;;8.65;;
34278;SDS011;20538;51.528;9.942;2023-02-05T13:21:48;21.02;;;9.82;;
34278;SDS011;20538;51.528;9.942;2023-02-05T13:24:44;18.55;;;11.38;;
34278;SDS011;20538;51.528;9.942;2023-02-05T13:27:39;20.25;;;10.43;;
34278;SDS011;20538;51.528;9.942;2023-02-05T13:30:36;19.42;;;10.80;;
34278;SDS011;20538;51.528;9.942;2023-02-05T13:33:15;18.73;;;10.32;;
34278;SDS011;20538;51.528;9.942;2023-02-05T13:35:42;20.77;;;11.55;;
34278;SDS011;20538;51.528;9.942;2023-02-05T13:41:19;20.08;;;12.13;;
34278;SDS011;20538;51.528;9.942;2023-02-05T13:53:28;19.60;;;10.95;;
34278;SDS011;20538;51.528;9.942;2023-02-05T13:55:42;16.92;;;10.73;;
34278;SDS011;20538;51.528;9.942;2023-02-05T13:58:12;19.67;;;11.25;;
34278;SDS011;20538;51.528;9.942;2023-02-05T14:00:45;18.38;;;9.93;;
34278;SDS011;20538;51.528;9.942;2023-02-05T14:03:54;19.23;;;11.63;;
34278;SDS011;20538;51.528;9.942;2023-02-05T14:08:57;21.83;;;10.77;;
34278;SDS011;20538;51.528;9.942;2023-02-05T14:14:22;18.55;;;11.35;;
34278;SDS011;20538;51.528;9.942;2023-02-05T14:16:50;18.55;;;11.00;;
34278;SDS011;20538;51.528;9.942;2023-02-05T14:19:17;19.52;;;11.98;;
34278;SDS011;20538;51.528;9.942;2023-02-05T14:24:41;19.63;;;11.63;;
34278;SDS011;20538;51.528;9.942;2023-02-05T14:29:50;20.50;;;11.90;;
34278;SDS011;20538;51.528;9.942;2023-02-05T14:35:00;26.08;;;13.15;;
34278;SDS011;20538;51.528;9.942;2023-02-05T14:37:33;21.38;;;13.65;;
34278;SDS011;20538;51.528;9.942;2023-02-05T14:42:45;28.08;;;15.60;;
34278;SDS011;20538;51.528;9.942;2023-02-05T14:45:12;25.15;;;14.77;;
34278;SDS011;20538;51.528;9.942;2023-02-05T14:47:40;27.25;;;15.57;;
34278;SDS011;20538;51.528;9.942;2023-02-05T14:50:09;30.45;;;15.15;;
34278;SDS011;20538;51.528;9.942;2023-02-05T14:52:46;27.55;;;15.77;;
34278;SDS011;20538;51.528;9.942;2023-02-05T14:55:42;25.02;;;14.23;;
34278;SDS011;20538;51.528;9.942;2023-02-05T15:00:45;26.90;;;14.45;;
34278;SDS011;20538;51.528;9.942;2023-02-05T15:08:14;31.02;;;17.33;;
34278;SDS011;20538;51.528;9.942;2023-02-05T15:10:48;29.17;;;16.33;;
34278;SDS011;20538;51.528;9.942;2023-02-05T15:13:22;30.60;;;15.73;;
34278;SDS011;20538;51.528;9.942;2023-02-05T15:18:42;27.38;;;14.85;;
34278;SDS011;20538;51.528;9.942;2023-02-05T15:21:11;23.95;;;13.80;;
34278;SDS011;20538;51.528;9.942;2023-02-05T15:23:44;27.42;;;15.27;;
34278;SDS011;20538;51.528;9.942;2023-02-05T15:26:23;22.67;;;13.45;;
34278;SDS011;20538;51.528;9.942;2023-02-05T15:29:11;27.05;;;13.48;;
34278;SDS011;20538;51.528;9.942;2023-02-05T15:31:49;26.50;;;14.15;;
34278;SDS011;20538;51.528;9.942;2023-02-05T15:39:52;30.52;;;14.95;;
34278;SDS011;20538;51.528;9.942;2023-02-05T15:50:26;28.88;;;16.13;;
34278;SDS011;20538;51.528;9.942;2023-02-05T15:52:53;31.00;;;16.20;;
34278;SDS011;20538;51.528;9.942;2023-02-05T15:55:20;30.40;;;16.05;;
34278;SDS011;20538;51.528;9.942;2023-02-05T15:57:48;29.25;;;16.42;;
34278;SDS011;20538;51.528;9.942;2023-02-05T16:00:18;29.05;;;16.30;;
34278;SDS011;20538;51.528;9.942;2023-02-05T16:02:56;27.33;;;16.42;;
34278;SDS011;20538;51.528;9.942;2023-02-05T16:05:27;33.10;;;17.38;;
34278;SDS011;20538;51.528;9.942;2023-02-05T16:07:54;30.42;;;16.00;;
34278;SDS011;20538;51.528;9.942;2023-02-05T16:10:32;28.10;;;14.80;;
34278;SDS011;20538;51.528;9.942;2023-02-05T16:15:47;28.88;;;16.42;;
34278;SDS011;20538;51.528;9.942;2023-02-05T16:21:04;30.48;;;16.23;;
34278;SDS011;20538;51.528;9.942;2023-02-05T16:23:51;25.63;;;14.52;;
34278;SDS011;20538;51.528;9.942;2023-02-05T16:26:22;27.30;;;15.02;;
34278;SDS011;20538;51.528;9.942;2023-02-05T16:29:27;26.20;;;15.07;;
34278;SDS011;20538;51.528;9.942;2023-02-05T16:32:00;31.00;;;15.13;;
34278;SDS011;20538;51.528;9.942;2023-02-05T16:34:31;26.52;;;14.90;;
34278;SDS011;20538;51.528;9.942;2023-02-05T16:37:02;28.63;;;15.82;;
34278;SDS011;20538;51.528;9.942;2023-02-05T16:39:35;29.35;;;15.77;;
34278;SDS011;20538;51.528;9.942;2023-02-05T16:42:07;28.20;;;15.60;;
34278;SDS011;20538;51.528;9.942;2023-02-05T16:44:41;21.83;;;12.27;;
34278;SDS011;20538;51.528;9.942;2023-02-05T16:49:36;34.78;;;17.20;;
34278;SDS011;20538;51.528;9.942;2023-02-05T16:52:02;33.50;;;16.10;;
34278;SDS011;20538;51.528;9.942;2023-02-05T16:54:30;25.35;;;14.90;;
34278;SDS011;20538;51.528;9.942;2023-02-05T17:00:16;33.35;;;17.13;;
34278;SDS011;20538;51.528;9.942;2023-02-05T17:04:57;33.85;;;16.50;;
34278;SDS011;20538;51.528;9.942;2023-02-05T17:07:25;34.13;;;18.05;;
34278;SDS011;20538;51.528;9.942;2023-02-05T17:09:51;28.90;;;17.20;;
34278;SDS011;20538;51.528;9.942;2023-02-05T17:14:58;33.60;;;17.13;;
34278;SDS011;20538;51.528;9.942;2023-02-05T17:17:51;28.63;;;15.85;;
34278;SDS011;20538;51.528;9.942;2023-02-05T17:20:19;29.15;;;14.50;;
34278;SDS011;20538;51.528;9.942;2023-02-05T17:25:27;31.38;;;15.27;;
34278;SDS011;20538;51.528;9.942;2023-02-05T17:28:00;28.50;;;15.60;;
34278;SDS011;20538;51.528;9.942;2023-02-05T17:30:27;31.80;;;15.80;;
34278;SDS011;20538;51.528;9.942;2023-02-05T17:32:53;31.45;;;14.43;;
34278;SDS011;20538;51.528;9.942;2023-02-05T17:35:19;31.98;;;15.05;;
34278;SDS011;20538;51.528;9.942;2023-02-05T17:37:46;29.80;;;15.98;;
34278;SDS011;20538;51.528;9.942;2023-02-05T17:40:13;31.23;;;15.68;;
34278;SDS011;20538;51.528;9.942;2023-02-05T17:42:39;32.92;;;16.00;;
34278;SDS011;20538;51.528;9.942;2023-02-05T17:45:18;31.35;;;16.63;;
34278;SDS011;20538;51.528;9.942;2023-02-05T17:47:46;30.80;;;16.60;;
34278;SDS011;20538;51.528;9.942;2023-02-05T17:50:12;29.67;;;16.80;;
34278;SDS011;20538;51.528;9.942;2023-02-05T17:52:38;35.25;;;16.83;;
34278;SDS011;20538;51.528;9.942;2023-02-05T17:55:04;32.97;;;16.90;;
34278;SDS011;20538;51.528;9.942;2023-02-05T17:57:31;35.50;;;17.70;;
34278;SDS011;20538;51.528;9.942;2023-02-05T17:59:58;33.45;;;17.27;;
34278;SDS011;20538;51.528;9.942;2023-02-05T18:02:24;29.55;;;15.27;;
34278;SDS011;20538;51.528;9.942;2023-02-05T18:04:51;37.38;;;17.15;;